Time;durP1;ratioP1;P1;durP2;ratioP2;P2;SDS_P1;SDS_P2;PMS_P1;PMS_P2;Temp;Humidity;BMP_temperature;BMP_pressure;BME280_temperature;BME280_humidity;BME280_pressure;Samples;Min_cycle;Max_cycle;Signal;HPM_P1;HPM_P2
2023/08/24 04:06:22;;;;;;;7.37;6.27;;;18.20;99.90;;;;;;5274794;23;20482;-63
2023/08/24 04:08:47;;;;;;;4.57;4.23;;;18.10;99.90;;;;;;4993361;28;20396;-63
2023/08/24 04:11:13;;;;;;;5.83;5.33;;;18.10;99.90;;;;;;4993831;28;20179;-63
2023/08/24 04:13:38;;;;;;;6.00;4.60;;;18.20;99.90;;;;;;4993343;28;20258;-63
2023/08/24 04:16:04;;;;;;;4.50;4.17;;;18.20;99.90;;;;;;4993779;28;20201;-63
2023/08/24 04:18:29;;;;;;;5.10;4.60;;;18.20;99.90;;;;;;4993681;28;20656;-63
2023/08/24 04:20:55;;;;;;;5.77;5.27;;;18.20;99.90;;;;;;4975782;28;20283;-63
2023/08/24 04:23:27;;;;;;;5.90;5.47;;;18.20;99.90;;;;;;4997661;28;20171;-63
2023/08/24 04:25:53;;;;;;;4.87;4.47;;;18.20;99.90;;;;;;4979962;28;20565;-63
2023/08/24 04:28:19;;;;;;;4.77;4.37;;;18.30;99.90;;;;;;4997421;28;20381;-63
2023/08/24 04:30:53;;;;;;;5.13;4.73;;;18.30;99.90;;;;;;4997128;28;20517;-63
2023/08/24 04:33:19;;;;;;;5.50;5.07;;;18.30;99.90;;;;;;4997204;28;20497;-63
2023/08/24 04:35:49;;;;;;;6.23;5.63;;;18.40;99.90;;;;;;4995625;28;20486;-63
2023/08/24 04:38:15;;;;;;;4.60;4.20;;;18.40;99.90;;;;;;4997130;28;20189;-63
2023/08/24 04:40:54;;;;;;;4.67;4.30;;;18.50;99.90;;;;;;4997059;28;20509;-63
2023/08/24 04:43:22;;;;;;;5.07;4.50;;;18.50;99.90;;;;;;4996734;28;20446;-63
2023/08/24 04:45:49;;;;;;;4.53;4.13;;;18.60;99.90;;;;;;4996438;28;20529;-63
2023/08/24 04:48:15;;;;;;;5.80;5.30;;;18.60;99.90;;;;;;4996870;28;20398;-63
2023/08/24 04:50:44;;;;;;;5.00;4.60;;;18.60;99.90;;;;;;4996709;28;20381;-62
2023/08/24 04:53:10;;;;;;;4.70;4.30;;;18.60;99.90;;;;;;4996803;28;20295;-63
2023/08/24 04:55:35;;;;;;;5.73;5.13;;;18.60;99.90;;;;;;4996526;28;20442;-63
2023/08/24 04:58:01;;;;;;;5.40;4.90;;;18.60;99.90;;;;;;4996554;28;20174;-62
2023/08/24 05:00:26;;;;;;;4.43;3.90;;;18.70;99.90;;;;;;4996819;28;20211;-62
2023/08/24 05:02:52;;;;;;;5.20;4.70;;;18.70;99.90;;;;;;4996979;28;20640;-63
2023/08/24 05:05:17;;;;;;;5.50;5.00;;;18.70;99.90;;;;;;4996326;28;20562;-63
2023/08/24 05:07:43;;;;;;;5.23;4.43;;;18.70;99.90;;;;;;4997069;28;20298;-63
2023/08/24 05:10:09;;;;;;;4.50;4.10;;;18.70;99.90;;;;;;4996592;28;20180;-63
2023/08/24 05:12:35;;;;;;;5.37;4.53;;;18.80;99.90;;;;;;4996836;28;20748;-63
2023/08/24 05:15:04;;;;;;;4.67;4.37;;;18.80;99.90;;;;;;4995645;28;20207;-62
2023/08/24 05:17:31;;;;;;;4.67;4.27;;;18.80;99.90;;;;;;4987600;28;20416;-62
2023/08/24 05:19:57;;;;;;;3.83;3.50;;;18.90;99.90;;;;;;4977071;28;20467;-63
2023/08/24 05:22:23;;;;;;;4.50;4.10;;;18.90;99.90;;;;;;4988814;28;20418;-63
2023/08/24 05:24:49;;;;;;;4.40;4.00;;;19.00;99.90;;;;;;4995246;28;20487;-63
2023/08/24 05:27:15;;;;;;;5.00;4.50;;;19.10;99.90;;;;;;4996687;28;20262;-63
2023/08/24 05:29:41;;;;;;;4.17;3.77;;;19.20;99.90;;;;;;4996507;28;20190;-63
2023/08/24 05:32:06;;;;;;;4.10;3.80;;;19.30;99.90;;;;;;4996228;28;20386;-63
2023/08/24 05:34:32;;;;;;;4.17;3.87;;;19.40;99.90;;;;;;4995742;28;20207;-63
2023/08/24 05:36:57;;;;;;;3.80;3.50;;;19.50;99.90;;;;;;4996195;28;20250;-63
2023/08/24 05:39:23;;;;;;;4.30;4.00;;;19.70;99.90;;;;;;4995919;28;20231;-63
2023/08/24 05:41:52;;;;;;;3.90;3.70;;;19.80;99.90;;;;;;4995956;28;20211;-64
2023/08/24 05:44:18;;;;;;;5.30;4.90;;;19.90;99.90;;;;;;4995625;28;20262;-63
2023/08/24 05:46:45;;;;;;;4.87;4.57;;;20.00;99.90;;;;;;4996024;28;20405;-63
2023/08/24 05:49:11;;;;;;;4.67;4.37;;;20.20;99.90;;;;;;4995808;28;20441;-63
2023/08/24 05:51:37;;;;;;;4.20;3.77;;;20.30;99.90;;;;;;4995773;28;20781;-63
2023/08/24 05:54:03;;;;;;;3.63;3.43;;;20.40;99.90;;;;;;4995383;28;20390;-63
2023/08/24 05:56:29;;;;;;;4.23;3.83;;;20.40;99.90;;;;;;4995083;28;20203;-63
2023/08/24 05:58:55;;;;;;;4.60;4.20;;;20.60;99.90;;;;;;4994314;28;20200;-62
2023/08/24 06:01:20;;;;;;;4.00;3.63;;;20.60;99.90;;;;;;4995051;28;20234;-63
2023/08/24 06:03:46;;;;;;;3.67;3.27;;;20.80;99.90;;;;;;4995228;28;20394;-63
2023/08/24 06:06:12;;;;;;;3.30;3.10;;;20.90;99.90;;;;;;4994880;28;20222;-62
2023/08/24 06:08:38;;;;;;;2.97;2.77;;;21.00;99.90;;;;;;4995448;28;20218;-62
2023/08/24 06:11:03;;;;;;;3.67;3.33;;;21.20;99.90;;;;;;4995575;28;20214;-62
2023/08/24 06:13:29;;;;;;;3.77;3.47;;;21.30;99.90;;;;;;4995224;28;20168;-63
2023/08/24 06:15:54;;;;;;;4.80;2.90;;;21.40;99.90;;;;;;4995100;28;20230;-63
2023/08/24 06:18:20;;;;;;;3.40;3.10;;;21.60;99.90;;;;;;4994828;28;20651;-62
2023/08/24 06:20:48;;;;;;;3.23;3.03;;;21.70;99.90;;;;;;4994958;28;20167;-63
2023/08/24 06:23:14;;;;;;;3.20;3.00;;;21.80;99.90;;;;;;4994408;28;20207;-62
2023/08/24 06:25:41;;;;;;;4.30;3.67;;;21.90;99.90;;;;;;4994598;28;20429;-62
2023/08/24 06:28:06;;;;;;;3.83;3.53;;;22.10;99.90;;;;;;4994840;28;20421;-62
2023/08/24 06:30:36;;;;;;;6.07;3.93;;;22.20;99.90;;;;;;4993422;28;20749;-62
2023/08/24 06:33:03;;;;;;;4.00;3.70;;;22.30;99.90;;;;;;4994957;28;20268;-63
2023/08/24 06:35:28;;;;;;;3.40;3.17;;;22.50;99.90;;;;;;4994408;28;20415;-62
2023/08/24 06:37:54;;;;;;;3.23;2.93;;;22.60;99.90;;;;;;4994910;28;20431;-63
2023/08/24 06:40:20;;;;;;;3.30;3.10;;;22.80;99.90;;;;;;4993929;28;20207;-63
2023/08/24 06:42:45;;;;;;;3.20;3.00;;;23.10;99.90;;;;;;4994367;28;20181;-62
2023/08/24 06:45:11;;;;;;;4.00;3.70;;;23.30;99.90;;;;;;4992846;28;20219;-62
2023/08/24 06:47:37;;;;;;;2.90;2.70;;;23.50;99.90;;;;;;4994439;28;20183;-62
2023/08/24 06:50:03;;;;;;;5.20;3.30;;;23.60;99.90;;;;;;4994085;28;20188;-62
2023/08/24 06:52:29;;;;;;;3.87;3.53;;;23.70;99.90;;;;;;4994298;28;20401;-63
2023/08/24 06:54:56;;;;;;;3.73;3.43;;;23.70;99.90;;;;;;4993886;28;20210;-62
2023/08/24 06:57:22;;;;;;;3.67;3.37;;;23.70;99.90;;;;;;4977711;28;20255;-62
2023/08/24 06:59:48;;;;;;;4.27;3.73;;;23.70;99.90;;;;;;4994546;28;20442;-62
2023/08/24 07:02:13;;;;;;;4.00;3.80;;;23.50;99.90;;;;;;4994645;28;20407;-62
2023/08/24 07:04:40;;;;;;;3.77;3.47;;;23.40;99.90;;;;;;4993832;28;20242;-63
2023/08/24 07:07:06;;;;;;;4.53;4.23;;;23.30;99.90;;;;;;4994390;28;20420;-63
2023/08/24 07:09:32;;;;;;;4.10;3.80;;;23.10;99.90;;;;;;4977136;28;20421;-63
2023/08/24 07:11:58;;;;;;;3.70;3.50;;;23.00;99.90;;;;;;4994139;28;20401;-62
2023/08/24 07:14:23;;;;;;;4.20;3.90;;;22.90;99.90;;;;;;4993679;28;20210;-62
2023/08/24 07:16:49;;;;;;;5.40;3.50;;;22.80;99.90;;;;;;4994318;28;20178;-62
2023/08/24 07:19:14;;;;;;;4.07;3.77;;;22.80;99.90;;;;;;4994701;28;20207;-62
2023/08/24 07:21:40;;;;;;;3.90;3.60;;;22.90;99.90;;;;;;4994291;28;20167;-62
2023/08/24 07:24:06;;;;;;;4.13;3.83;;;23.00;99.90;;;;;;4993508;28;20658;-63
2023/08/24 07:26:31;;;;;;;3.87;3.57;;;23.10;99.90;;;;;;4994192;28;20187;-62
2023/08/24 07:28:57;;;;;;;4.37;4.07;;;23.30;99.90;;;;;;4994516;28;20206;-62
2023/08/24 07:31:23;;;;;;;4.97;4.50;;;23.40;99.90;;;;;;4993259;28;20230;-62
2023/08/24 07:33:49;;;;;;;4.17;3.83;;;23.50;99.90;;;;;;4993401;28;20393;-62
2023/08/24 07:36:15;;;;;;;4.87;4.47;;;23.60;99.90;;;;;;4994123;28;20282;-62
2023/08/24 07:38:40;;;;;;;5.20;4.80;;;23.70;99.90;;;;;;4994052;28;20537;-62
2023/08/24 07:41:06;;;;;;;4.80;4.40;;;24.00;99.90;;;;;;4993919;28;20460;-62
2023/08/24 07:43:32;;;;;;;4.53;4.13;;;24.30;99.90;;;;;;4992983;28;20176;-61
2023/08/24 07:45:59;;;;;;;4.30;4.00;;;24.60;99.90;;;;;;4983552;28;20563;-62
2023/08/24 07:48:25;;;;;;;4.07;3.77;;;24.70;99.90;;;;;;4974467;28;20476;-61
2023/08/24 07:50:51;;;;;;;4.93;4.63;;;24.80;99.90;;;;;;4974524;28;20838;-61
2023/08/24 07:53:16;;;;;;;4.90;4.53;;;24.80;99.90;;;;;;4979805;28;20511;-61
2023/08/24 07:55:43;;;;;;;3.93;3.60;;;25.00;99.90;;;;;;4993720;28;20417;-61
2023/08/24 07:58:08;;;;;;;5.80;4.30;;;25.30;99.90;;;;;;4978194;28;20583;-62
2023/08/24 08:00:34;;;;;;;4.70;4.30;;;25.80;99.90;;;;;;4987662;28;20544;-62
2023/08/24 08:03:00;;;;;;;3.93;3.63;;;26.70;99.90;;;;;;4997930;28;20179;-61
2023/08/24 08:05:26;;;;;;;5.80;5.27;;;27.80;99.90;;;;;;4996672;28;20847;-62
2023/08/24 08:07:52;;;;;;;4.93;4.43;;;28.90;98.30;;;;;;4997502;28;20175;-62
2023/08/24 08:10:20;;;;;;;4.47;4.17;;;29.70;96.80;;;;;;4997406;28;20411;-63
2023/08/24 08:12:45;;;;;;;4.77;4.40;;;30.50;95.40;;;;;;4992969;28;21133;-65
2023/08/24 08:15:11;;;;;;;5.10;4.70;;;31.40;94.10;;;;;;4996356;28;20521;-63
2023/08/24 08:17:37;;;;;;;4.50;4.20;;;32.20;91.80;;;;;;4997650;28;20183;-65
2023/08/24 08:20:03;;;;;;;4.40;4.10;;;33.00;90.70;;;;;;4997400;28;20218;-67
2023/08/24 08:22:29;;;;;;;4.80;4.50;;;33.60;89.20;;;;;;4997178;28;20188;-66
2023/08/24 08:24:56;;;;;;;4.53;3.70;;;34.40;87.10;;;;;;4996914;28;20438;-66
2023/08/24 08:27:22;;;;;;;4.13;3.83;;;35.20;84.20;;;;;;4996233;28;20178;-67
2023/08/24 08:29:49;;;;;;;4.50;4.20;;;35.90;81.30;;;;;;4977491;28;20824;-66
2023/08/24 08:32:15;;;;;;;3.90;3.70;;;36.20;79.10;;;;;;4996711;28;20505;-66
2023/08/24 08:34:40;;;;;;;3.90;3.63;;;36.60;77.20;;;;;;4977691;28;20522;-66
2023/08/24 08:37:06;;;;;;;4.70;4.40;;;36.90;76.90;;;;;;4977707;28;20184;-66
2023/08/24 08:39:35;;;;;;;4.13;3.83;;;37.20;73.80;;;;;;4977702;28;20208;-66
2023/08/24 08:42:01;;;;;;;5.00;4.70;;;37.40;73.00;;;;;;4977595;28;20210;-64
2023/08/24 08:44:31;;;;;;;4.07;3.77;;;37.30;73.30;;;;;;4995931;28;20425;-66
2023/08/24 08:46:57;;;;;;;5.07;4.50;;;37.40;73.00;;;;;;4997095;28;20402;-66
2023/08/24 08:49:23;;;;;;;4.30;4.00;;;37.50;72.70;;;;;;4996929;28;20422;-65
2023/08/24 08:51:51;;;;;;;8.20;4.07;;;37.50;71.60;;;;;;4996723;28;20182;-65
2023/08/24 08:54:17;;;;;;;4.03;3.83;;;37.40;71.30;;;;;;4995925;28;20443;-66
2023/08/24 08:56:42;;;;;;;4.43;4.23;;;37.50;70.20;;;;;;4996850;28;20426;-66
2023/08/24 08:59:11;;;;;;;4.53;4.23;;;37.50;70.00;;;;;;4996491;28;20210;-67
2023/08/24 09:01:38;;;;;;;3.43;3.30;;;37.50;69.50;;;;;;4996788;28;20179;-65
2023/08/24 09:04:06;;;;;;;4.37;4.07;;;37.60;70.20;;;;;;4995118;28;20435;-64
2023/08/24 09:06:32;;;;;;;4.37;4.10;;;37.90;69.80;;;;;;4995344;28;20462;-64
2023/08/24 09:08:57;;;;;;;4.10;3.87;;;38.10;68.40;;;;;;4996277;28;20421;-65
2023/08/24 09:11:24;;;;;;;4.90;4.50;;;38.20;68.10;;;;;;4996317;28;20210;-65
2023/08/24 09:13:49;;;;;;;4.50;4.20;;;38.20;68.20;;;;;;4996274;28;20176;-64
2023/08/24 09:16:18;;;;;;;3.40;3.20;;;38.30;68.20;;;;;;4996015;28;20975;-65
2023/08/24 09:18:47;;;;;;;4.80;4.50;;;38.30;68.30;;;;;;4996461;28;20175;-65
2023/08/24 09:21:14;;;;;;;4.07;3.83;;;38.80;67.50;;;;;;4996463;28;20908;-65
2023/08/24 09:23:45;;;;;;;4.80;4.50;;;39.10;67.00;;;;;;4996076;28;20421;-65
2023/08/24 09:26:11;;;;;;;4.30;4.10;;;39.60;65.30;;;;;;4995490;28;20566;-65
2023/08/24 09:28:39;;;;;;;4.27;4.07;;;39.80;64.90;;;;;;4996015;28;20484;-65
2023/08/24 09:31:05;;;;;;;4.60;4.30;;;40.00;63.60;;;;;;4996279;28;20268;-65
2023/08/24 09:33:31;;;;;;;5.13;4.07;;;40.30;63.20;;;;;;4996029;28;20494;-64
2023/08/24 09:36:01;;;;;;;3.97;3.77;;;40.60;62.60;;;;;;4996036;28;20259;-65
2023/08/24 09:38:27;;;;;;;3.90;3.60;;;40.70;61.70;;;;;;4995874;28;20183;-65
2023/08/24 09:40:55;;;;;;;4.70;4.50;;;40.40;61.70;;;;;;4995903;28;20434;-65
2023/08/24 09:43:21;;;;;;;4.90;4.60;;;40.10;62.60;;;;;;4996197;28;20461;-64
2023/08/24 09:45:56;;;;;;;4.33;4.13;;;40.00;62.20;;;;;;4978134;28;20534;-65
2023/08/24 09:48:23;;;;;;;4.50;4.20;;;40.10;62.10;;;;;;4995900;28;20477;-65
2023/08/24 09:50:51;;;;;;;3.90;3.50;;;40.30;61.80;;;;;;4995809;28;20790;-65
2023/08/24 09:53:22;;;;;;;4.10;3.90;;;40.50;62.70;;;;;;4995540;28;20513;-65
2023/08/24 09:56:02;;;;;;;4.27;4.07;;;40.50;61.60;;;;;;4995461;28;20457;-65
2023/08/24 09:58:28;;;;;;;5.03;4.70;;;40.80;60.80;;;;;;4995954;28;20418;-65
2023/08/24 10:00:55;;;;;;;4.40;4.00;;;40.80;60.70;;;;;;4978126;28;20939;-64
2023/08/24 10:03:24;;;;;;;4.43;4.13;;;40.80;60.60;;;;;;4995839;28;20781;-65
2023/08/24 10:05:54;;;;;;;4.90;4.60;;;41.00;60.60;;;;;;4995417;28;20593;-65
2023/08/24 10:08:29;;;;;;;4.50;4.20;;;40.90;60.40;;;;;;4995291;28;20955;-64
2023/08/24 10:10:58;;;;;;;5.10;4.70;;;40.70;60.50;;;;;;4996035;28;20418;-65
2023/08/24 10:13:46;;;;;;;5.33;4.97;;;40.40;60.80;;;;;;4995092;28;20477;-65
2023/08/24 10:16:13;;;;;;;4.90;4.60;;;40.20;61.20;;;;;;4995555;28;20521;-65
2023/08/24 10:18:40;;;;;;;5.57;5.17;;;40.00;62.00;;;;;;4994553;28;20399;-66
2023/08/24 10:21:07;;;;;;;5.77;5.37;;;40.00;62.30;;;;;;4995262;28;20403;-65
2023/08/24 10:23:35;;;;;;;4.63;4.33;;;39.80;62.50;;;;;;4994701;28;20518;-65
2023/08/24 10:26:03;;;;;;;4.93;4.53;;;39.60;63.30;;;;;;4994787;28;20446;-65
2023/08/24 10:28:30;;;;;;;4.53;4.30;;;39.90;62.70;;;;;;4995203;28;20415;-66
2023/08/24 10:30:59;;;;;;;5.17;4.87;;;39.90;62.40;;;;;;4994882;28;20554;-65
2023/08/24 10:33:26;;;;;;;4.63;4.33;;;39.90;63.10;;;;;;4994963;28;20485;-65
2023/08/24 10:35:52;;;;;;;4.83;4.53;;;39.70;62.80;;;;;;4994913;28;20482;-65
2023/08/24 10:38:27;;;;;;;4.77;4.47;;;39.40;63.40;;;;;;4994937;28;20455;-65
2023/08/24 10:40:53;;;;;;;4.73;4.43;;;39.20;64.90;;;;;;4994569;28;20473;-66
2023/08/24 10:43:20;;;;;;;5.23;4.83;;;39.00;65.20;;;;;;4995011;28;20430;-65
2023/08/24 10:46:03;;;;;;;4.80;4.50;;;38.70;65.90;;;;;;4975098;28;20525;-65
2023/08/24 10:48:31;;;;;;;4.40;4.10;;;38.40;66.50;;;;;;5006909;28;20422;-66
2023/08/24 10:51:16;;;;;;;4.63;4.40;;;38.20;67.00;;;;;;5012871;28;20437;-66
2023/08/24 10:53:45;;;;;;;5.43;5.00;;;38.10;67.40;;;;;;4994246;28;20451;-65
2023/08/24 10:56:15;;;;;;;5.50;5.10;;;38.00;67.80;;;;;;4994470;28;20435;-65
2023/08/24 10:58:42;;;;;;;5.27;4.87;;;37.90;68.90;;;;;;4994826;28;20387;-64
2023/08/24 11:01:17;;;;;;;6.17;5.70;;;37.60;69.30;;;;;;4976898;28;20415;-60
2023/08/24 11:03:50;;;;;;;4.90;4.60;;;37.30;69.90;;;;;;4994379;28;21223;-60
2023/08/24 11:06:21;;;;;;;5.47;5.07;;;37.10;70.30;;;;;;4994417;28;20450;-60
2023/08/24 11:08:48;;;;;;;5.40;5.07;;;36.90;71.20;;;;;;4994095;28;20419;-60
2023/08/24 11:11:25;;;;;;;5.47;5.07;;;36.80;72.30;;;;;;4994540;28;20808;-60
2023/08/24 11:14:21;;;;;;;5.73;5.33;;;36.30;73.30;;;;;;4992930;28;20440;-62
2023/08/24 11:16:47;;;;;;;6.03;5.63;;;35.60;74.80;;;;;;4993294;28;20427;-61
2023/08/24 11:19:14;;;;;;;6.30;4.47;;;35.20;76.30;;;;;;4994357;28;20373;-60
2023/08/24 11:21:41;;;;;;;5.67;5.27;;;34.70;77.50;;;;;;4994245;28;20411;-60
2023/08/24 11:24:07;;;;;;;5.90;5.50;;;34.50;78.30;;;;;;4993955;28;20405;-60
2023/08/24 11:26:34;;;;;;;5.03;4.63;;;34.20;79.20;;;;;;4976531;28;20452;-60
2023/08/24 11:29:04;;;;;;;6.60;5.83;;;34.00;80.10;;;;;;4993887;28;20528;-60
2023/08/24 11:31:29;;;;;;;5.00;4.60;;;33.70;81.00;;;;;;4993835;28;20909;-61
2023/08/24 11:33:58;;;;;;;5.30;4.90;;;33.50;82.30;;;;;;4993767;28;20417;-60
2023/08/24 11:36:24;;;;;;;5.27;4.80;;;33.20;82.80;;;;;;4994263;28;20226;-60
2023/08/24 11:38:53;;;;;;;5.10;4.70;;;33.00;83.50;;;;;;4976251;28;20401;-61
2023/08/24 11:41:21;;;;;;;5.50;5.00;;;33.00;84.40;;;;;;4993746;28;20530;-61
2023/08/24 11:43:48;;;;;;;4.93;4.57;;;33.00;85.00;;;;;;4993459;28;20431;-61
2023/08/24 11:46:16;;;;;;;6.30;5.60;;;33.00;85.30;;;;;;4993977;28;20406;-62
2023/08/24 11:48:42;;;;;;;5.70;5.30;;;32.80;85.70;;;;;;4993952;28;20800;-61
2023/08/24 11:51:12;;;;;;;5.37;4.80;;;32.70;85.90;;;;;;4993533;28;20430;-62
2023/08/24 11:53:42;;;;;;;5.50;5.00;;;32.70;87.40;;;;;;4993787;28;20172;-61
2023/08/24 11:56:12;;;;;;;5.37;4.97;;;32.70;86.70;;;;;;4993821;28;20907;-61
2023/08/24 11:58:41;;;;;;;6.30;5.80;;;32.80;87.40;;;;;;4993951;28;20496;-61
2023/08/24 12:01:08;;;;;;;5.17;4.77;;;32.80;86.70;;;;;;4994001;28;20480;-60
2023/08/24 12:03:35;;;;;;;5.87;5.43;;;32.90;87.30;;;;;;4993119;28;20431;-60
2023/08/24 12:06:04;;;;;;;5.87;5.47;;;32.90;87.30;;;;;;4993477;28;20465;-62
2023/08/24 12:08:30;;;;;;;5.23;4.70;;;32.90;86.40;;;;;;4994001;28;20406;-65
2023/08/24 12:10:55;;;;;;;5.50;5.10;;;32.90;86.50;;;;;;4993508;28;20433;-64
2023/08/24 12:13:22;;;;;;;5.57;5.10;;;32.90;87.20;;;;;;4993679;28;20538;-69
2023/08/24 12:15:50;;;;;;;5.80;5.30;;;33.00;87.30;;;;;;4975848;28;20202;-64
2023/08/24 12:18:16;;;;;;;6.17;4.77;;;33.00;86.60;;;;;;4993222;28;20392;-66
2023/08/24 12:20:41;;;;;;;6.30;5.70;;;33.10;87.80;;;;;;4993571;28;20385;-64
2023/08/24 12:23:08;;;;;;;6.33;5.73;;;33.10;87.10;;;;;;4993069;28;20537;-66
2023/08/24 12:25:44;;;;;;;6.53;6.00;;;33.20;86.50;;;;;;4992382;28;20280;-66
2023/08/24 12:28:10;;;;;;;5.63;5.10;;;33.20;86.40;;;;;;4992920;28;20883;-63
2023/08/24 12:30:49;;;;;;;5.30;4.87;;;33.10;86.80;;;;;;4993678;28;20450;-64
2023/08/24 12:33:28;;;;;;;6.10;5.60;;;33.20;88.10;;;;;;4993572;28;20163;-64
2023/08/24 12:35:55;;;;;;;6.53;5.93;;;33.20;86.60;;;;;;4993111;28;20439;-62
2023/08/24 12:38:22;;;;;;;5.77;5.27;;;33.30;86.40;;;;;;4993963;28;20519;-66
2023/08/24 12:40:48;;;;;;;4.77;4.47;;;33.30;86.30;;;;;;4993177;28;20405;-63
2023/08/24 12:43:13;;;;;;;5.27;4.83;;;33.30;86.40;;;;;;4995524;28;20508;-67
2023/08/24 12:45:42;;;;;;;4.77;4.37;;;33.30;86.40;;;;;;4979207;28;20226;-66
2023/08/24 12:48:10;;;;;;;5.10;4.60;;;33.30;86.60;;;;;;4997273;28;20201;-64
2023/08/24 12:50:37;;;;;;;5.60;5.20;;;33.40;87.00;;;;;;4996860;28;20436;-64
2023/08/24 12:53:05;;;;;;;5.13;4.43;;;33.50;86.40;;;;;;4996181;28;20500;-66
2023/08/24 12:55:30;;;;;;;5.57;5.17;;;33.60;85.50;;;;;;4978713;28;20425;-64
2023/08/24 12:57:56;;;;;;;5.87;5.37;;;33.70;86.40;;;;;;4996749;28;20400;-66
2023/08/24 13:00:22;;;;;;;4.73;4.43;;;33.90;85.80;;;;;;4996443;28;20175;-66
2023/08/24 13:02:50;;;;;;;8.67;5.27;;;33.90;84.40;;;;;;4978823;28;20188;-67
2023/08/24 13:05:16;;;;;;;6.10;5.33;;;33.90;84.30;;;;;;4996000;28;20561;-68
2023/08/24 13:07:42;;;;;;;4.70;4.40;;;34.00;84.40;;;;;;4996376;28;20417;-64
2023/08/24 13:10:08;;;;;;;6.50;4.90;;;34.10;85.00;;;;;;4996593;28;20808;-66
2023/08/24 13:12:35;;;;;;;4.47;4.07;;;34.10;84.20;;;;;;4996027;28;20569;-64
2023/08/24 13:15:02;;;;;;;5.57;5.07;;;34.10;83.90;;;;;;4996129;28;20514;-67
2023/08/24 13:17:27;;;;;;;5.40;5.00;;;34.10;83.60;;;;;;4979510;28;20441;-64
2023/08/24 13:19:53;;;;;;;5.30;4.80;;;34.10;84.10;;;;;;4996485;28;20385;-67
2023/08/24 13:22:19;;;;;;;5.10;4.60;;;34.10;83.60;;;;;;4996279;28;20315;-64
2023/08/24 13:24:44;;;;;;;3.93;3.70;;;34.20;83.70;;;;;;4995944;28;20195;-67
2023/08/24 13:27:10;;;;;;;5.20;4.80;;;34.30;82.80;;;;;;4996428;28;20172;-65
2023/08/24 13:29:42;;;;;;;6.37;5.87;;;34.50;82.00;;;;;;4995989;28;20221;-63
2023/08/24 13:32:08;;;;;;;5.53;5.03;;;34.60;82.10;;;;;;4996374;28;20190;-66
2023/08/24 13:34:34;;;;;;;4.90;4.50;;;34.80;82.50;;;;;;4995756;28;20439;-65
2023/08/24 13:37:00;;;;;;;4.47;4.07;;;34.90;83.30;;;;;;4996077;28;20184;-67
2023/08/24 13:39:29;;;;;;;6.10;5.50;;;35.10;81.20;;;;;;4996266;28;20175;-64
2023/08/24 13:41:58;;;;;;;5.20;4.70;;;35.30;80.30;;;;;;4995935;28;20419;-67
2023/08/24 13:44:24;;;;;;;4.93;4.63;;;35.30;79.60;;;;;;4995609;28;20415;-66
2023/08/24 13:46:50;;;;;;;5.60;5.20;;;35.20;79.50;;;;;;4996770;28;20402;-67
2023/08/24 13:49:18;;;;;;;4.27;3.97;;;35.20;79.20;;;;;;4997021;28;20823;-66
2023/08/24 13:51:44;;;;;;;4.83;4.43;;;35.20;78.80;;;;;;4996388;28;20434;-67
2023/08/24 13:54:17;;;;;;;4.90;4.50;;;35.20;78.50;;;;;;4978481;28;20390;-67
2023/08/24 13:56:44;;;;;;;6.33;4.50;;;35.20;76.30;;;;;;4996937;28;20223;-67
2023/08/24 13:59:10;;;;;;;4.97;4.57;;;35.10;76.60;;;;;;4997519;28;20392;-64
2023/08/24 14:01:36;;;;;;;4.10;3.80;;;35.10;76.40;;;;;;4996783;28;20414;-67
2023/08/24 14:04:03;;;;;;;4.37;3.73;;;35.10;76.80;;;;;;4995802;28;20191;-64
2023/08/24 14:06:29;;;;;;;4.23;3.93;;;35.10;76.70;;;;;;4995367;28;20211;-64
2023/08/24 14:08:56;;;;;;;4.90;4.50;;;35.10;76.70;;;;;;4995637;28;20436;-67
2023/08/24 14:11:22;;;;;;;4.73;4.33;;;35.20;75.90;;;;;;4995494;28;20899;-63
2023/08/24 14:13:48;;;;;;;4.77;3.77;;;35.20;75.80;;;;;;4995456;28;20457;-66
2023/08/24 14:16:13;;;;;;;5.20;4.70;;;35.30;75.50;;;;;;4996038;28;20266;-64
2023/08/24 14:18:39;;;;;;;4.63;4.23;;;35.30;73.90;;;;;;4995479;28;20254;-64
2023/08/24 14:21:05;;;;;;;5.00;4.60;;;35.30;74.40;;;;;;4995595;28;20220;-64
2023/08/24 14:23:31;;;;;;;4.23;3.93;;;35.30;74.70;;;;;;4994806;28;20411;-67
2023/08/24 14:25:56;;;;;;;4.93;4.30;;;35.30;75.10;;;;;;4995362;28;20192;-64
2023/08/24 14:28:22;;;;;;;4.87;4.47;;;35.20;75.80;;;;;;4995589;28;20176;-66
2023/08/24 14:30:52;;;;;;;4.90;3.60;;;35.20;76.60;;;;;;4995342;28;20205;-64
2023/08/24 14:33:18;;;;;;;4.40;4.10;;;35.10;76.30;;;;;;4994957;28;20433;-66
2023/08/24 14:35:53;;;;;;;4.33;4.03;;;35.00;76.00;;;;;;4977372;28;20413;-64
2023/08/24 14:38:19;;;;;;;4.37;4.07;;;35.00;76.00;;;;;;4995143;28;20438;-67
2023/08/24 14:40:44;;;;;;;5.20;4.73;;;35.00;75.80;;;;;;4994962;28;20443;-63
2023/08/24 14:43:10;;;;;;;4.80;4.40;;;34.90;75.40;;;;;;4994947;28;20175;-66
2023/08/24 14:45:36;;;;;;;4.40;4.07;;;34.90;75.10;;;;;;4994297;28;20192;-63
2023/08/24 14:48:02;;;;;;;4.20;3.80;;;34.80;75.10;;;;;;4994613;28;20234;-66
2023/08/24 14:50:28;;;;;;;4.37;3.83;;;34.70;75.20;;;;;;4994757;28;20425;-66
2023/08/24 14:52:53;;;;;;;4.10;3.80;;;34.70;75.40;;;;;;4994871;28;20179;-66
2023/08/24 14:55:19;;;;;;;5.20;4.70;;;34.60;74.90;;;;;;4994296;28;20226;-67
2023/08/24 14:57:44;;;;;;;4.23;3.83;;;34.50;75.30;;;;;;4994647;28;20263;-67
2023/08/24 15:00:10;;;;;;;4.97;4.00;;;34.30;75.60;;;;;;4994445;28;20175;-66
2023/08/24 15:02:41;;;;;;;4.10;3.70;;;34.10;75.60;;;;;;4994305;28;20242;-63
2023/08/24 15:05:07;;;;;;;4.70;4.40;;;33.90;76.20;;;;;;4993558;28;20870;-65
2023/08/24 15:07:33;;;;;;;6.03;4.50;;;33.60;76.80;;;;;;4994615;28;20518;-64
2023/08/24 15:09:59;;;;;;;7.03;4.30;;;33.40;81.60;;;;;;4994431;28;20540;-67
2023/08/24 15:12:24;;;;;;;5.30;4.80;;;33.00;90.70;;;;;;4994552;28;20203;-63
2023/08/24 15:15:01;;;;;;;7.03;3.20;;;32.00;93.00;;;;;;4993683;28;20198;-64
2023/08/24 15:17:29;;;;;;;6.33;3.43;;;30.70;94.80;;;;;;4993773;28;20171;-65
2023/08/24 15:19:56;;;;;;;3.33;2.90;;;29.50;98.70;;;;;;4994372;28;20381;-65
2023/08/24 15:22:29;;;;;;;5.53;3.20;;;28.60;99.90;;;;;;4994151;28;20430;-65
2023/08/24 15:24:55;;;;;;;3.23;2.97;;;27.80;99.90;;;;;;4993954;28;20412;-65
2023/08/24 15:27:21;;;;;;;4.90;3.90;;;27.30;99.90;;;;;;4977108;28;20421;-65
2023/08/24 15:29:46;;;;;;;3.30;3.10;;;26.80;99.90;;;;;;4994070;28;20480;-64
2023/08/24 15:32:12;;;;;;;3.97;3.70;;;26.30;99.90;;;;;;4993873;28;20186;-63
2023/08/24 15:34:39;;;;;;;3.23;2.97;;;25.80;99.90;;;;;;4993447;28;20257;-63
2023/08/24 15:37:05;;;;;;;3.70;3.40;;;25.10;99.90;;;;;;4994122;28;20743;-63
2023/08/24 15:39:37;;;;;;;5.00;2.90;;;24.40;99.90;;;;;;4994137;28;20513;-63
2023/08/24 15:42:03;;;;;;;2.97;2.77;;;23.80;99.90;;;;;;4994278;28;20179;-63
2023/08/24 15:44:29;;;;;;;2.70;2.50;;;23.30;99.90;;;;;;4993213;28;20447;-63
2023/08/24 15:46:54;;;;;;;2.00;1.90;;;22.90;99.90;;;;;;4993919;28;20423;-62
2023/08/24 15:49:22;;;;;;;2.93;2.37;;;22.70;99.90;;;;;;4993784;28;20254;-64
2023/08/24 15:51:48;;;;;;;3.17;2.40;;;22.50;99.90;;;;;;4993753;28;20211;-70
2023/08/24 15:54:14;;;;;;;2.10;2.00;;;22.40;99.90;;;;;;4993445;28;20808;-71
2023/08/24 15:56:41;;;;;;;1.50;1.30;;;22.20;99.90;;;;;;4976717;28;20433;-73
2023/08/24 15:59:07;;;;;;;1.30;1.20;;;22.10;99.90;;;;;;4993707;28;20223;-72
2023/08/24 16:01:33;;;;;;;1.10;1.10;;;21.90;99.90;;;;;;4974224;28;20792;-70
2023/08/24 16:03:58;;;;;;;1.23;1.13;;;21.80;99.90;;;;;;4973967;28;20235;-70
2023/08/24 16:06:24;;;;;;;1.40;1.30;;;21.60;99.90;;;;;;4974230;28;20251;-72
2023/08/24 16:08:49;;;;;;;1.10;1.10;;;21.50;99.90;;;;;;4974472;28;20202;-75
2023/08/24 16:11:15;;;;;;;1.63;1.40;;;21.40;99.90;;;;;;4974514;28;20203;-75
2023/08/24 16:13:41;;;;;;;1.60;1.50;;;21.40;99.90;;;;;;4973908;28;20635;-78
2023/08/24 16:16:06;;;;;;;1.17;1.17;;;21.30;99.90;;;;;;4991912;28;20219;-76
2023/08/24 16:18:32;;;;;;;1.70;1.43;;;21.30;99.90;;;;;;4996532;28;20180;-78
2023/08/24 16:20:57;;;;;;;1.17;0.90;;;21.30;99.90;;;;;;4994205;28;20199;-70
2023/08/24 16:23:23;;;;;;;0.90;0.90;;;21.20;99.90;;;;;;4978943;28;20705;-74
2023/08/24 16:25:50;;;;;;;0.93;0.90;;;21.30;99.90;;;;;;4980113;28;20558;-67
2023/08/24 16:28:15;;;;;;;1.20;1.07;;;21.30;99.90;;;;;;4978127;28;20172;-66
2023/08/24 16:30:41;;;;;;;1.70;1.60;;;21.30;99.90;;;;;;4994195;28;20423;-67
2023/08/24 16:33:07;;;;;;;1.67;1.57;;;21.20;99.90;;;;;;4997116;28;20542;-66
2023/08/24 16:35:32;;;;;;;1.23;1.20;;;21.30;99.90;;;;;;4996992;28;20281;-67
2023/08/24 16:37:58;;;;;;;2.67;1.20;;;21.20;99.90;;;;;;4997329;28;20175;-67
2023/08/24 16:40:23;;;;;;;1.40;1.30;;;21.30;99.90;;;;;;4994099;28;20198;-66
2023/08/24 16:42:49;;;;;;;1.27;1.00;;;21.30;99.90;;;;;;4986658;28;20283;-69
2023/08/24 16:45:15;;;;;;;1.20;1.10;;;21.40;99.90;;;;;;4986703;28;20196;-67
2023/08/24 16:47:40;;;;;;;1.83;1.73;;;21.40;99.90;;;;;;4985510;28;20160;-66
2023/08/24 16:50:07;;;;;;;2.00;1.40;;;21.50;99.90;;;;;;4984601;28;20451;-67
2023/08/24 16:52:32;;;;;;;2.40;1.53;;;21.60;99.90;;;;;;4987039;28;20184;-67